sensor_id;sensor_type;location;lat;lon;timestamp;P1;durP1;ratioP1;P2;durP2;ratioP2
22040;SDS011;11184;52.444;13.578;2023-04-01T00:02:44;3.22;;;2.67;;
22040;SDS011;11184;52.444;13.578;2023-04-01T00:05:29;2.67;;;2.30;;
22040;SDS011;11184;52.444;13.578;2023-04-01T00:08:13;2.83;;;2.17;;
22040;SDS011;11184;52.444;13.578;2023-04-01T00:10:58;3.03;;;2.08;;
22040;SDS011;11184;52.444;13.578;2023-04-01T00:13:43;2.55;;;2.33;;
22040;SDS011;11184;52.444;13.578;2023-04-01T00:16:28;2.35;;;1.67;;
22040;SDS011;11184;52.444;13.578;2023-04-01T00:19:12;2.30;;;1.83;;
22040;SDS011;11184;52.444;13.578;2023-04-01T00:21:57;3.83;;;2.35;;
22040;SDS011;11184;52.444;13.578;2023-04-01T00:24:42;4.50;;;1.80;;
22040;SDS011;11184;52.444;13.578;2023-04-01T00:27:26;3.40;;;1.60;;
22040;SDS011;11184;52.444;13.578;2023-04-01T00:30:11;2.92;;;2.00;;
22040;SDS011;11184;52.444;13.578;2023-04-01T00:32:55;2.67;;;2.08;;
22040;SDS011;11184;52.444;13.578;2023-04-01T00:35:40;2.50;;;1.60;;
22040;SDS011;11184;52.444;13.578;2023-04-01T00:38:25;2.10;;;1.70;;
22040;SDS011;11184;52.444;13.578;2023-04-01T00:41:10;2.45;;;1.92;;
22040;SDS011;11184;52.444;13.578;2023-04-01T00:44:16;2.88;;;1.77;;
22040;SDS011;11184;52.444;13.578;2023-04-01T00:47:01;3.03;;;2.67;;
22040;SDS011;11184;52.444;13.578;2023-04-01T00:49:47;2.72;;;1.98;;
22040;SDS011;11184;52.444;13.578;2023-04-01T00:52:33;3.88;;;2.05;;
22040;SDS011;11184;52.444;13.578;2023-04-01T00:55:18;3.50;;;2.20;;
22040;SDS011;11184;52.444;13.578;2023-04-01T00:58:04;2.10;;;1.92;;
22040;SDS011;11184;52.444;13.578;2023-04-01T01:00:50;6.18;;;2.20;;
22040;SDS011;11184;52.444;13.578;2023-04-01T01:03:35;2.83;;;2.63;;
22040;SDS011;11184;52.444;13.578;2023-04-01T01:06:26;2.67;;;2.08;;
22040;SDS011;11184;52.444;13.578;2023-04-01T01:12:01;2.83;;;2.10;;
22040;SDS011;11184;52.444;13.578;2023-04-01T01:14:55;5.30;;;3.15;;
22040;SDS011;11184;52.444;13.578;2023-04-01T01:21:04;2.10;;;2.00;;
22040;SDS011;11184;52.444;13.578;2023-04-01T01:26:42;3.17;;;2.50;;
22040;SDS011;11184;52.444;13.578;2023-04-01T01:35:21;3.47;;;2.65;;
22040;SDS011;11184;52.444;13.578;2023-04-01T01:38:08;4.68;;;3.33;;
22040;SDS011;11184;52.444;13.578;2023-04-01T01:40:53;4.75;;;3.22;;
22040;SDS011;11184;52.444;13.578;2023-04-01T01:43:42;5.45;;;2.47;;
22040;SDS011;11184;52.444;13.578;2023-04-01T01:46:28;4.95;;;3.15;;
22040;SDS011;11184;52.444;13.578;2023-04-01T01:49:14;4.22;;;2.50;;
22040;SDS011;11184;52.444;13.578;2023-04-01T01:52:01;4.95;;;2.75;;
22040;SDS011;11184;52.444;13.578;2023-04-01T01:54:47;5.10;;;3.80;;
22040;SDS011;11184;52.444;13.578;2023-04-01T01:57:33;3.58;;;3.28;;
22040;SDS011;11184;52.444;13.578;2023-04-01T02:00:18;4.05;;;3.60;;
22040;SDS011;11184;52.444;13.578;2023-04-01T02:03:03;3.20;;;3.00;;
22040;SDS011;11184;52.444;13.578;2023-04-01T02:05:49;5.70;;;3.70;;
22040;SDS011;11184;52.444;13.578;2023-04-01T02:08:39;5.53;;;4.07;;
22040;SDS011;11184;52.444;13.578;2023-04-01T02:11:26;3.85;;;3.42;;
22040;SDS011;11184;52.444;13.578;2023-04-01T02:14:16;3.33;;;3.03;;
22040;SDS011;11184;52.444;13.578;2023-04-01T02:17:04;5.32;;;3.67;;
22040;SDS011;11184;52.444;13.578;2023-04-01T02:19:51;2.88;;;2.58;;
22040;SDS011;11184;52.444;13.578;2023-04-01T02:22:37;3.58;;;2.83;;
22040;SDS011;11184;52.444;13.578;2023-04-01T02:25:33;3.60;;;3.03;;
22040;SDS011;11184;52.444;13.578;2023-04-01T02:28:19;4.97;;;2.67;;
22040;SDS011;11184;52.444;13.578;2023-04-01T02:31:04;3.67;;;2.55;;
22040;SDS011;11184;52.444;13.578;2023-04-01T02:33:49;8.23;;;3.17;;
22040;SDS011;11184;52.444;13.578;2023-04-01T02:36:34;4.25;;;2.88;;
22040;SDS011;11184;52.444;13.578;2023-04-01T02:39:19;3.72;;;2.53;;
22040;SDS011;11184;52.444;13.578;2023-04-01T02:42:04;3.78;;;2.85;;
22040;SDS011;11184;52.444;13.578;2023-04-01T02:44:49;3.15;;;2.55;;
22040;SDS011;11184;52.444;13.578;2023-04-01T02:47:34;3.67;;;2.40;;
22040;SDS011;11184;52.444;13.578;2023-04-01T02:50:18;8.32;;;4.53;;
22040;SDS011;11184;52.444;13.578;2023-04-01T02:53:03;3.88;;;3.22;;
22040;SDS011;11184;52.444;13.578;2023-04-01T02:55:49;3.42;;;2.67;;
22040;SDS011;11184;52.444;13.578;2023-04-01T02:58:35;4.05;;;2.67;;
22040;SDS011;11184;52.444;13.578;2023-04-01T03:01:20;4.65;;;3.03;;
22040;SDS011;11184;52.444;13.578;2023-04-01T03:04:05;5.22;;;3.08;;
22040;SDS011;11184;52.444;13.578;2023-04-01T03:06:49;7.22;;;2.40;;
22040;SDS011;11184;52.444;13.578;2023-04-01T03:09:34;3.63;;;2.90;;
22040;SDS011;11184;52.444;13.578;2023-04-01T03:12:19;5.05;;;3.05;;
22040;SDS011;11184;52.444;13.578;2023-04-01T03:15:03;3.15;;;2.50;;
22040;SDS011;11184;52.444;13.578;2023-04-01T03:17:48;2.85;;;2.13;;
22040;SDS011;11184;52.444;13.578;2023-04-01T03:20:33;3.50;;;3.15;;
22040;SDS011;11184;52.444;13.578;2023-04-01T03:23:18;2.45;;;2.22;;
22040;SDS011;11184;52.444;13.578;2023-04-01T03:26:04;5.97;;;3.00;;
22040;SDS011;11184;52.444;13.578;2023-04-01T03:28:49;2.70;;;2.50;;
22040;SDS011;11184;52.444;13.578;2023-04-01T03:31:33;6.93;;;3.40;;
22040;SDS011;11184;52.444;13.578;2023-04-01T03:34:19;3.47;;;2.22;;
22040;SDS011;11184;52.444;13.578;2023-04-01T03:37:04;5.68;;;2.40;;
22040;SDS011;11184;52.444;13.578;2023-04-01T03:39:49;6.95;;;2.67;;
22040;SDS011;11184;52.444;13.578;2023-04-01T03:42:33;4.38;;;2.42;;
22040;SDS011;11184;52.444;13.578;2023-04-01T03:45:18;6.00;;;2.60;;
22040;SDS011;11184;52.444;13.578;2023-04-01T03:48:03;3.63;;;2.05;;
22040;SDS011;11184;52.444;13.578;2023-04-01T03:50:48;4.68;;;2.60;;
22040;SDS011;11184;52.444;13.578;2023-04-01T03:53:32;5.45;;;2.83;;
22040;SDS011;11184;52.444;13.578;2023-04-01T03:56:17;5.35;;;3.05;;
22040;SDS011;11184;52.444;13.578;2023-04-01T03:59:03;5.65;;;2.88;;
22040;SDS011;11184;52.444;13.578;2023-04-01T04:01:47;4.50;;;3.05;;
22040;SDS011;11184;52.444;13.578;2023-04-01T04:04:32;2.95;;;2.35;;
22040;SDS011;11184;52.444;13.578;2023-04-01T04:07:17;5.88;;;2.17;;
22040;SDS011;11184;52.444;13.578;2023-04-01T04:10:02;5.82;;;3.28;;
22040;SDS011;11184;52.444;13.578;2023-04-01T04:12:47;4.63;;;2.97;;
22040;SDS011;11184;52.444;13.578;2023-04-01T04:15:33;4.00;;;2.53;;
22040;SDS011;11184;52.444;13.578;2023-04-01T04:18:17;5.75;;;2.50;;
22040;SDS011;11184;52.444;13.578;2023-04-01T04:21:02;5.10;;;2.45;;
22040;SDS011;11184;52.444;13.578;2023-04-01T04:23:48;5.30;;;2.88;;
22040;SDS011;11184;52.444;13.578;2023-04-01T04:26:32;7.28;;;3.42;;
22040;SDS011;11184;52.444;13.578;2023-04-01T04:29:17;8.65;;;3.10;;
22040;SDS011;11184;52.444;13.578;2023-04-01T04:32:01;4.85;;;3.33;;
22040;SDS011;11184;52.444;13.578;2023-04-01T04:34:46;4.50;;;3.33;;
22040;SDS011;11184;52.444;13.578;2023-04-01T04:37:31;4.40;;;2.97;;
22040;SDS011;11184;52.444;13.578;2023-04-01T04:40:15;6.03;;;3.33;;
22040;SDS011;11184;52.444;13.578;2023-04-01T04:43:00;5.88;;;2.95;;
22040;SDS011;11184;52.444;13.578;2023-04-01T04:45:44;3.13;;;2.90;;
22040;SDS011;11184;52.444;13.578;2023-04-01T04:48:29;3.40;;;2.63;;
22040;SDS011;11184;52.444;13.578;2023-04-01T04:51:15;3.78;;;2.92;;
22040;SDS011;11184;52.444;13.578;2023-04-01T04:54:00;4.68;;;3.10;;
22040;SDS011;11184;52.444;13.578;2023-04-01T04:56:44;4.10;;;3.55;;
22040;SDS011;11184;52.444;13.578;2023-04-01T04:59:30;8.95;;;3.75;;
22040;SDS011;11184;52.444;13.578;2023-04-01T05:02:14;4.70;;;3.53;;
22040;SDS011;11184;52.444;13.578;2023-04-01T05:04:59;4.70;;;3.50;;
22040;SDS011;11184;52.444;13.578;2023-04-01T05:07:44;7.05;;;4.07;;
22040;SDS011;11184;52.444;13.578;2023-04-01T05:10:28;7.30;;;4.05;;
22040;SDS011;11184;52.444;13.578;2023-04-01T05:13:14;9.85;;;4.90;;
22040;SDS011;11184;52.444;13.578;2023-04-01T05:15:58;4.75;;;3.60;;
22040;SDS011;11184;52.444;13.578;2023-04-01T05:18:43;6.20;;;4.05;;
22040;SDS011;11184;52.444;13.578;2023-04-01T05:21:27;4.28;;;3.88;;
22040;SDS011;11184;52.444;13.578;2023-04-01T05:24:12;10.10;;;3.83;;
22040;SDS011;11184;52.444;13.578;2023-04-01T05:26:56;4.10;;;3.60;;
22040;SDS011;11184;52.444;13.578;2023-04-01T05:29:41;6.15;;;4.28;;
22040;SDS011;11184;52.444;13.578;2023-04-01T05:32:25;5.43;;;4.88;;
22040;SDS011;11184;52.444;13.578;2023-04-01T05:35:10;7.35;;;3.95;;
22040;SDS011;11184;52.444;13.578;2023-04-01T05:37:55;4.28;;;3.83;;
22040;SDS011;11184;52.444;13.578;2023-04-01T05:40:39;4.63;;;4.07;;
22040;SDS011;11184;52.444;13.578;2023-04-01T05:43:24;4.88;;;4.38;;
22040;SDS011;11184;52.444;13.578;2023-04-01T05:46:09;4.00;;;3.70;;
22040;SDS011;11184;52.444;13.578;2023-04-01T05:48:53;4.10;;;3.60;;
22040;SDS011;11184;52.444;13.578;2023-04-01T05:51:38;6.28;;;4.03;;
22040;SDS011;11184;52.444;13.578;2023-04-01T05:54:23;5.15;;;3.85;;
22040;SDS011;11184;52.444;13.578;2023-04-01T05:57:08;4.75;;;4.32;;
22040;SDS011;11184;52.444;13.578;2023-04-01T05:59:52;4.63;;;4.03;;
22040;SDS011;11184;52.444;13.578;2023-04-01T06:02:37;10.20;;;3.63;;
22040;SDS011;11184;52.444;13.578;2023-04-01T06:05:23;11.43;;;4.75;;
22040;SDS011;11184;52.444;13.578;2023-04-01T06:08:15;6.65;;;4.95;;
22040;SDS011;11184;52.444;13.578;2023-04-01T06:14:42;5.72;;;4.45;;
22040;SDS011;11184;52.444;13.578;2023-04-01T06:17:25;6.38;;;4.55;;
22040;SDS011;11184;52.444;13.578;2023-04-01T06:28:40;9.57;;;5.68;;
22040;SDS011;11184;52.444;13.578;2023-04-01T06:31:46;5.13;;;4.38;;
22040;SDS011;11184;52.444;13.578;2023-04-01T06:37:31;5.00;;;4.38;;
22040;SDS011;11184;52.444;13.578;2023-04-01T06:40:33;6.55;;;3.50;;
22040;SDS011;11184;52.444;13.578;2023-04-01T06:43:32;11.32;;;4.13;;
22040;SDS011;11184;52.444;13.578;2023-04-01T06:46:38;5.03;;;3.95;;
22040;SDS011;11184;52.444;13.578;2023-04-01T06:49:28;5.18;;;3.83;;
22040;SDS011;11184;52.444;13.578;2023-04-01T06:58:22;3.75;;;2.08;;
22040;SDS011;11184;52.444;13.578;2023-04-01T07:01:09;6.60;;;3.05;;
22040;SDS011;11184;52.444;13.578;2023-04-01T07:07:14;5.78;;;3.33;;
22040;SDS011;11184;52.444;13.578;2023-04-01T07:10:00;5.65;;;2.97;;
22040;SDS011;11184;52.444;13.578;2023-04-01T07:12:48;5.65;;;3.10;;
22040;SDS011;11184;52.444;13.578;2023-04-01T07:15:36;6.30;;;3.70;;
22040;SDS011;11184;52.444;13.578;2023-04-01T07:18:24;5.07;;;3.88;;
22040;SDS011;11184;52.444;13.578;2023-04-01T07:21:14;5.45;;;3.63;;
22040;SDS011;11184;52.444;13.578;2023-04-01T07:24:04;6.43;;;2.63;;
22040;SDS011;11184;52.444;13.578;2023-04-01T07:26:52;10.00;;;2.88;;
22040;SDS011;11184;52.444;13.578;2023-04-01T07:29:38;7.47;;;5.15;;
22040;SDS011;11184;52.444;13.578;2023-04-01T07:32:28;6.25;;;5.35;;
22040;SDS011;11184;52.444;13.578;2023-04-01T07:38:05;2.92;;;2.65;;
22040;SDS011;11184;52.444;13.578;2023-04-01T07:41:00;6.47;;;3.45;;
22040;SDS011;11184;52.444;13.578;2023-04-01T07:43:55;4.00;;;3.00;;
22040;SDS011;11184;52.444;13.578;2023-04-01T07:52:42;7.47;;;3.63;;
22040;SDS011;11184;52.444;13.578;2023-04-01T08:04:03;3.88;;;2.20;;
22040;SDS011;11184;52.444;13.578;2023-04-01T08:12:46;4.82;;;2.55;;
22040;SDS011;11184;52.444;13.578;2023-04-01T08:15:35;6.10;;;3.03;;
22040;SDS011;11184;52.444;13.578;2023-04-01T08:21:12;5.22;;;2.88;;
22040;SDS011;11184;52.444;13.578;2023-04-01T08:24:00;4.15;;;1.38;;
22040;SDS011;11184;52.444;13.578;2023-04-01T08:26:53;5.68;;;2.53;;
22040;SDS011;11184;52.444;13.578;2023-04-01T08:29:44;3.53;;;2.10;;
22040;SDS011;11184;52.444;13.578;2023-04-01T08:32:40;2.72;;;1.52;;
22040;SDS011;11184;52.444;13.578;2023-04-01T08:35:28;8.00;;;3.00;;
22040;SDS011;11184;52.444;13.578;2023-04-01T08:38:17;5.75;;;2.55;;
22040;SDS011;11184;52.444;13.578;2023-04-01T08:41:16;6.38;;;3.08;;
22040;SDS011;11184;52.444;13.578;2023-04-01T08:47:12;3.58;;;3.28;;
22040;SDS011;11184;52.444;13.578;2023-04-01T08:52:57;5.10;;;4.60;;
22040;SDS011;11184;52.444;13.578;2023-04-01T08:55:51;5.72;;;5.15;;
22040;SDS011;11184;52.444;13.578;2023-04-01T08:58:44;8.32;;;7.47;;
22040;SDS011;11184;52.444;13.578;2023-04-01T09:07:21;7.28;;;6.57;;
22040;SDS011;11184;52.444;13.578;2023-04-01T09:10:59;6.40;;;5.80;;
22040;SDS011;11184;52.444;13.578;2023-04-01T09:13:29;8.23;;;6.78;;
22040;SDS011;11184;52.444;13.578;2023-04-01T09:22:14;6.10;;;5.55;;
22040;SDS011;11184;52.444;13.578;2023-04-01T09:25:06;5.82;;;5.32;;
22040;SDS011;11184;52.444;13.578;2023-04-01T09:28:01;7.35;;;6.40;;
22040;SDS011;11184;52.444;13.578;2023-04-01T09:36:32;5.05;;;4.55;;
22040;SDS011;11184;52.444;13.578;2023-04-01T09:39:33;5.38;;;4.88;;
22040;SDS011;11184;52.444;13.578;2023-04-01T09:42:26;5.90;;;5.30;;
22040;SDS011;11184;52.444;13.578;2023-04-01T09:48:11;5.50;;;5.07;;
22040;SDS011;11184;52.444;13.578;2023-04-01T09:54:22;6.50;;;5.65;;
22040;SDS011;11184;52.444;13.578;2023-04-01T10:03:35;5.80;;;5.30;;
22040;SDS011;11184;52.444;13.578;2023-04-01T10:09:05;5.43;;;4.93;;
22040;SDS011;11184;52.444;13.578;2023-04-01T10:12:02;5.40;;;4.90;;
22040;SDS011;11184;52.444;13.578;2023-04-01T10:17:56;4.70;;;4.38;;
22040;SDS011;11184;52.444;13.578;2023-04-01T10:26:45;4.47;;;4.10;;
22040;SDS011;11184;52.444;13.578;2023-04-01T10:29:38;4.43;;;4.05;;
22040;SDS011;11184;52.444;13.578;2023-04-01T10:32:41;4.15;;;3.53;;
22040;SDS011;11184;52.444;13.578;2023-04-01T10:35:38;3.97;;;3.63;;
22040;SDS011;11184;52.444;13.578;2023-04-01T10:41:34;3.65;;;3.35;;
22040;SDS011;11184;52.444;13.578;2023-04-01T10:44:30;3.60;;;3.30;;
22040;SDS011;11184;52.444;13.578;2023-04-01T10:47:26;7.43;;;4.13;;
22040;SDS011;11184;52.444;13.578;2023-04-01T10:53:31;4.05;;;3.75;;
22040;SDS011;11184;52.444;13.578;2023-04-01T10:56:27;9.43;;;8.52;;
22040;SDS011;11184;52.444;13.578;2023-04-01T11:11:23;5.70;;;5.10;;
22040;SDS011;11184;52.444;13.578;2023-04-01T11:14:26;9.23;;;7.60;;
22040;SDS011;11184;52.444;13.578;2023-04-01T11:17:25;6.15;;;5.65;;
22040;SDS011;11184;52.444;13.578;2023-04-01T11:26:15;10.65;;;9.50;;
22040;SDS011;11184;52.444;13.578;2023-04-01T11:29:24;9.07;;;8.27;;
22040;SDS011;11184;52.444;13.578;2023-04-01T11:32:15;5.07;;;4.00;;
22040;SDS011;11184;52.444;13.578;2023-04-01T11:37:59;6.13;;;5.25;;
22040;SDS011;11184;52.444;13.578;2023-04-01T11:43:55;4.82;;;3.75;;
22040;SDS011;11184;52.444;13.578;2023-04-01T11:49:42;3.42;;;2.40;;
22040;SDS011;11184;52.444;13.578;2023-04-01T11:52:47;3.65;;;2.78;;
22040;SDS011;11184;52.444;13.578;2023-04-01T11:55:54;3.28;;;2.20;;
22040;SDS011;11184;52.444;13.578;2023-04-01T12:01:48;4.55;;;2.50;;
22040;SDS011;11184;52.444;13.578;2023-04-01T12:04:43;5.43;;;3.05;;
22040;SDS011;11184;52.444;13.578;2023-04-01T12:13:49;5.53;;;4.30;;
22040;SDS011;11184;52.444;13.578;2023-04-01T12:16:38;3.05;;;2.75;;
22040;SDS011;11184;52.444;13.578;2023-04-01T12:19:26;4.28;;;3.13;;
22040;SDS011;11184;52.444;13.578;2023-04-01T12:28:12;3.45;;;2.92;;
22040;SDS011;11184;52.444;13.578;2023-04-01T12:34:21;4.97;;;4.57;;
22040;SDS011;11184;52.444;13.578;2023-04-01T12:40:14;3.78;;;3.47;;
22040;SDS011;11184;52.444;13.578;2023-04-01T12:49:12;7.28;;;6.50;;
22040;SDS011;11184;52.444;13.578;2023-04-01T12:52:07;5.32;;;4.93;;
22040;SDS011;11184;52.444;13.578;2023-04-01T12:55:06;4.95;;;4.45;;
22040;SDS011;11184;52.444;13.578;2023-04-01T13:01:03;3.95;;;3.65;;
22040;SDS011;11184;52.444;13.578;2023-04-01T13:07:05;4.15;;;3.75;;
22040;SDS011;11184;52.444;13.578;2023-04-01T13:13:08;6.53;;;5.88;;
22040;SDS011;11184;52.444;13.578;2023-04-01T13:21:41;4.18;;;3.78;;
22040;SDS011;11184;52.444;13.578;2023-04-01T13:24:31;5.40;;;4.88;;
22040;SDS011;11184;52.444;13.578;2023-04-01T13:27:21;7.97;;;6.35;;
22040;SDS011;11184;52.444;13.578;2023-04-01T13:30:16;6.10;;;5.50;;
22040;SDS011;11184;52.444;13.578;2023-04-01T13:33:04;10.65;;;6.10;;
22040;SDS011;11184;52.444;13.578;2023-04-01T13:39:02;3.95;;;3.65;;
22040;SDS011;11184;52.444;13.578;2023-04-01T13:42:01;4.38;;;3.97;;
22040;SDS011;11184;52.444;13.578;2023-04-01T13:47:47;4.93;;;4.28;;
22040;SDS011;11184;52.444;13.578;2023-04-01T13:53:29;4.82;;;4.07;;
22040;SDS011;11184;52.444;13.578;2023-04-01T13:56:22;7.10;;;4.95;;
22040;SDS011;11184;52.444;13.578;2023-04-01T13:59:28;7.13;;;5.07;;
22040;SDS011;11184;52.444;13.578;2023-04-01T14:08:35;3.95;;;3.22;;
22040;SDS011;11184;52.444;13.578;2023-04-01T14:11:30;8.25;;;5.00;;
22040;SDS011;11184;52.444;13.578;2023-04-01T14:20:20;4.88;;;3.58;;
22040;SDS011;11184;52.444;13.578;2023-04-01T14:23:19;4.03;;;2.25;;
22040;SDS011;11184;52.444;13.578;2023-04-01T14:29:22;2.70;;;2.30;;
22040;SDS011;11184;52.444;13.578;2023-04-01T14:32:14;4.50;;;3.40;;
22040;SDS011;11184;52.444;13.578;2023-04-01T14:35:17;4.07;;;2.85;;
22040;SDS011;11184;52.444;13.578;2023-04-01T14:38:20;8.70;;;5.25;;
22040;SDS011;11184;52.444;13.578;2023-04-01T14:41:45;5.93;;;5.43;;
22040;SDS011;11184;52.444;13.578;2023-04-01T14:44:23;6.93;;;6.28;;
22040;SDS011;11184;52.444;13.578;2023-04-01T14:50:09;5.90;;;5.50;;
22040;SDS011;11184;52.444;13.578;2023-04-01T14:56:01;6.35;;;5.80;;
22040;SDS011;11184;52.444;13.578;2023-04-01T14:58:47;4.82;;;4.53;;
22040;SDS011;11184;52.444;13.578;2023-04-01T15:04:22;5.50;;;4.40;;
22040;SDS011;11184;52.444;13.578;2023-04-01T15:10:22;7.30;;;6.60;;
22040;SDS011;11184;52.444;13.578;2023-04-01T15:13:13;7.18;;;6.50;;
22040;SDS011;11184;52.444;13.578;2023-04-01T15:16:01;18.05;;;12.52;;
22040;SDS011;11184;52.444;13.578;2023-04-01T15:24:46;5.90;;;5.38;;
22040;SDS011;11184;52.444;13.578;2023-04-01T15:27:38;8.50;;;7.78;;
22040;SDS011;11184;52.444;13.578;2023-04-01T15:30:28;8.18;;;7.38;;
22040;SDS011;11184;52.444;13.578;2023-04-01T15:34:00;8.57;;;7.28;;
22040;SDS011;11184;52.444;13.578;2023-04-01T15:39:09;4.88;;;4.55;;
22040;SDS011;11184;52.444;13.578;2023-04-01T15:42:11;6.68;;;4.47;;
22040;SDS011;11184;52.444;13.578;2023-04-01T15:45:12;4.75;;;4.15;;
22040;SDS011;11184;52.444;13.578;2023-04-01T15:50:57;3.55;;;2.35;;
22040;SDS011;11184;52.444;13.578;2023-04-01T15:56:40;4.90;;;4.47;;
22040;SDS011;11184;52.444;13.578;2023-04-01T15:59:40;3.95;;;3.65;;
22040;SDS011;11184;52.444;13.578;2023-04-01T16:02:34;3.88;;;3.53;;
22040;SDS011;11184;52.444;13.578;2023-04-01T16:14:28;3.72;;;3.35;;
22040;SDS011;11184;52.444;13.578;2023-04-01T16:17:36;3.20;;;2.65;;
22040;SDS011;11184;52.444;13.578;2023-04-01T16:23:35;6.90;;;3.83;;
22040;SDS011;11184;52.444;13.578;2023-04-01T16:26:35;3.80;;;3.05;;
22040;SDS011;11184;52.444;13.578;2023-04-01T16:29:24;3.60;;;2.88;;
22040;SDS011;11184;52.444;13.578;2023-04-01T16:35:35;4.80;;;4.47;;
22040;SDS011;11184;52.444;13.578;2023-04-01T16:41:18;6.25;;;5.05;;
22040;SDS011;11184;52.444;13.578;2023-04-01T16:44:17;5.53;;;5.10;;
22040;SDS011;11184;52.444;13.578;2023-04-01T16:47:11;6.20;;;5.70;;
22040;SDS011;11184;52.444;13.578;2023-04-01T16:49:59;5.78;;;5.03;;
22040;SDS011;11184;52.444;13.578;2023-04-01T16:52:51;5.32;;;3.38;;
22040;SDS011;11184;52.444;13.578;2023-04-01T16:55:45;2.92;;;2.72;;
22040;SDS011;11184;52.444;13.578;2023-04-01T17:01:20;4.03;;;3.72;;
22040;SDS011;11184;52.444;13.578;2023-04-01T17:04:08;5.95;;;5.45;;
22040;SDS011;11184;52.444;13.578;2023-04-01T17:07:10;6.43;;;5.82;;
22040;SDS011;11184;52.444;13.578;2023-04-01T17:10:06;5.82;;;5.43;;
22040;SDS011;11184;52.444;13.578;2023-04-01T17:24:44;6.75;;;6.18;;
22040;SDS011;11184;52.444;13.578;2023-04-01T17:27:57;5.25;;;4.85;;
22040;SDS011;11184;52.444;13.578;2023-04-01T17:31:02;5.28;;;4.88;;
22040;SDS011;11184;52.444;13.578;2023-04-01T17:36:53;4.60;;;3.90;;
22040;SDS011;11184;52.444;13.578;2023-04-01T17:42:53;6.47;;;4.85;;
22040;SDS011;11184;52.444;13.578;2023-04-01T17:48:30;5.97;;;5.38;;
22040;SDS011;11184;52.444;13.578;2023-04-01T17:51:25;7.43;;;6.72;;
22040;SDS011;11184;52.444;13.578;2023-04-01T17:57:07;5.03;;;4.72;;
22040;SDS011;11184;52.444;13.578;2023-04-01T18:00:02;4.45;;;4.10;;
22040;SDS011;11184;52.444;13.578;2023-04-01T18:03:05;4.00;;;3.30;;
22040;SDS011;11184;52.444;13.578;2023-04-01T18:08:49;5.10;;;4.53;;
22040;SDS011;11184;52.444;13.578;2023-04-01T18:12:00;5.65;;;5.15;;
22040;SDS011;11184;52.444;13.578;2023-04-01T18:17:57;7.53;;;6.93;;
22040;SDS011;11184;52.444;13.578;2023-04-01T18:20:51;9.30;;;6.40;;
22040;SDS011;11184;52.444;13.578;2023-04-01T18:23:41;7.00;;;6.50;;
22040;SDS011;11184;52.444;13.578;2023-04-01T18:26:28;7.20;;;6.50;;
22040;SDS011;11184;52.444;13.578;2023-04-01T18:29:27;6.70;;;6.20;;
22040;SDS011;11184;52.444;13.578;2023-04-01T18:32:31;6.10;;;5.60;;
22040;SDS011;11184;52.444;13.578;2023-04-01T18:35:22;4.78;;;4.47;;
22040;SDS011;11184;52.444;13.578;2023-04-01T18:38:12;7.50;;;6.35;;
22040;SDS011;11184;52.444;13.578;2023-04-01T18:46:52;5.03;;;4.63;;
22040;SDS011;11184;52.444;13.578;2023-04-01T18:52:45;5.65;;;4.75;;
22040;SDS011;11184;52.444;13.578;2023-04-01T18:58:29;5.30;;;4.80;;
22040;SDS011;11184;52.444;13.578;2023-04-01T19:01:28;6.68;;;5.28;;
22040;SDS011;11184;52.444;13.578;2023-04-01T19:04:28;5.53;;;5.05;;
22040;SDS011;11184;52.444;13.578;2023-04-01T19:07:57;4.88;;;4.38;;
22040;SDS011;11184;52.444;13.578;2023-04-01T19:10:26;5.85;;;5.05;;
22040;SDS011;11184;52.444;13.578;2023-04-01T19:13:34;5.68;;;4.57;;
22040;SDS011;11184;52.444;13.578;2023-04-01T19:16:28;5.28;;;4.85;;
22040;SDS011;11184;52.444;13.578;2023-04-01T19:22:22;8.35;;;6.07;;
22040;SDS011;11184;52.444;13.578;2023-04-01T19:28:25;6.32;;;5.63;;
22040;SDS011;11184;52.444;13.578;2023-04-01T19:31:18;6.97;;;6.20;;
22040;SDS011;11184;52.444;13.578;2023-04-01T19:40:21;7.80;;;6.25;;
22040;SDS011;11184;52.444;13.578;2023-04-01T19:46:06;6.75;;;6.15;;
22040;SDS011;11184;52.444;13.578;2023-04-01T19:49:04;5.38;;;4.97;;
22040;SDS011;11184;52.444;13.578;2023-04-01T20:00:31;7.65;;;7.05;;
22040;SDS011;11184;52.444;13.578;2023-04-01T20:06:32;8.38;;;7.60;;
22040;SDS011;11184;52.444;13.578;2023-04-01T20:09:42;8.27;;;7.47;;
22040;SDS011;11184;52.444;13.578;2023-04-01T20:12:40;9.38;;;8.10;;
22040;SDS011;11184;52.444;13.578;2023-04-01T20:15:36;9.95;;;9.02;;
22040;SDS011;11184;52.444;13.578;2023-04-01T20:18:45;11.23;;;8.52;;
22040;SDS011;11184;52.444;13.578;2023-04-01T20:21:36;10.98;;;8.45;;
22040;SDS011;11184;52.444;13.578;2023-04-01T20:24:29;12.63;;;9.10;;
22040;SDS011;11184;52.444;13.578;2023-04-01T20:27:17;10.38;;;9.27;;
22040;SDS011;11184;52.444;13.578;2023-04-01T20:30:25;15.10;;;11.05;;
22040;SDS011;11184;52.444;13.578;2023-04-01T20:44:53;14.32;;;8.98;;
22040;SDS011;11184;52.444;13.578;2023-04-01T20:50:34;9.32;;;8.52;;
22040;SDS011;11184;52.444;13.578;2023-04-01T20:53:28;9.05;;;8.15;;
22040;SDS011;11184;52.444;13.578;2023-04-01T20:59:15;10.52;;;8.68;;
22040;SDS011;11184;52.444;13.578;2023-04-01T21:02:14;14.80;;;8.80;;
22040;SDS011;11184;52.444;13.578;2023-04-01T21:05:23;11.10;;;9.30;;
22040;SDS011;11184;52.444;13.578;2023-04-01T21:17:06;14.05;;;9.63;;
22040;SDS011;11184;52.444;13.578;2023-04-01T21:22:51;11.77;;;10.57;;
22040;SDS011;11184;52.444;13.578;2023-04-01T21:25:56;14.63;;;9.90;;
22040;SDS011;11184;52.444;13.578;2023-04-01T21:28:47;10.07;;;9.10;;
22040;SDS011;11184;52.444;13.578;2023-04-01T21:31:43;13.20;;;11.18;;
22040;SDS011;11184;52.444;13.578;2023-04-01T21:34:34;12.50;;;9.68;;
22040;SDS011;11184;52.444;13.578;2023-04-01T21:37:42;10.45;;;9.55;;
22040;SDS011;11184;52.444;13.578;2023-04-01T21:40:42;12.48;;;8.80;;
22040;SDS011;11184;52.444;13.578;2023-04-01T21:43:39;17.58;;;9.90;;
22040;SDS011;11184;52.444;13.578;2023-04-01T21:46:39;13.35;;;10.00;;
22040;SDS011;11184;52.444;13.578;2023-04-01T21:49:41;11.32;;;9.82;;
22040;SDS011;11184;52.444;13.578;2023-04-01T22:04:27;7.75;;;6.90;;
22040;SDS011;11184;52.444;13.578;2023-04-01T22:07:17;8.45;;;7.70;;
22040;SDS011;11184;52.444;13.578;2023-04-01T22:10:10;14.27;;;7.43;;
22040;SDS011;11184;52.444;13.578;2023-04-01T22:12:59;11.18;;;8.32;;
22040;SDS011;11184;52.444;13.578;2023-04-01T22:22:18;11.48;;;8.05;;
22040;SDS011;11184;52.444;13.578;2023-04-01T22:25:08;11.52;;;7.20;;
22040;SDS011;11184;52.444;13.578;2023-04-01T22:27:57;7.85;;;7.00;;
22040;SDS011;11184;52.444;13.578;2023-04-01T22:30:45;9.27;;;6.13;;
22040;SDS011;11184;52.444;13.578;2023-04-01T22:33:43;7.05;;;6.43;;
22040;SDS011;11184;52.444;13.578;2023-04-01T22:36:50;7.97;;;6.00;;
22040;SDS011;11184;52.444;13.578;2023-04-01T22:39:42;8.63;;;7.30;;
22040;SDS011;11184;52.444;13.578;2023-04-01T22:42:45;7.35;;;5.43;;
22040;SDS011;11184;52.444;13.578;2023-04-01T22:45:40;6.18;;;4.75;;
22040;SDS011;11184;52.444;13.578;2023-04-01T22:48:47;10.35;;;6.28;;
22040;SDS011;11184;52.444;13.578;2023-04-01T22:51:39;7.07;;;5.65;;
22040;SDS011;11184;52.444;13.578;2023-04-01T22:54:32;11.52;;;5.93;;
22040;SDS011;11184;52.444;13.578;2023-04-01T23:05:59;6.40;;;5.53;;
22040;SDS011;11184;52.444;13.578;2023-04-01T23:08:56;6.32;;;5.50;;
22040;SDS011;11184;52.444;13.578;2023-04-01T23:11:50;9.63;;;5.88;;
22040;SDS011;11184;52.444;13.578;2023-04-01T23:14:47;6.57;;;6.00;;
22040;SDS011;11184;52.444;13.578;2023-04-01T23:20:26;5.85;;;5.28;;
22040;SDS011;11184;52.444;13.578;2023-04-01T23:23:24;6.53;;;5.13;;